Caldwell, Idaho
Current Conditions -  °F | °C
As of 10:15 AM on Monday 22 Dec 2014 (Local Time) from KEUL Reporting Station
Overcast Overcast  
Wind Chill: 37°   Ceiling: 4600
Heat Index: 41°   Visibility: 10mi
Dew Point: 34°   Wind: 6mph
Humidity: 76%   Direction: 250°WSW
Pressure: 30.18"   Gusts: NA
Location:  43.67°N, 116.69°W
Report Text: KEUL 221715Z AUTO 25005KT 10SM OVC046 05/01 A3018 RMK AO1
Loading
Personal Weather Stations






























Interactive Weather Map New forecast layout! Learn more

10-Day Weather Forecast

Advertisements
Track Severe Weather on mobile